Brokaw, Wisconsin
Current Conditions -  °F | °C
As of 3:54 PM on Monday 26 Jan 2015 (Local Time) from KAUW Reporting Station
Overcast Overcast  
Wind Chill: -11°   Ceiling: 1200
Heat Index: -6°   Visibility: 8mi
Dew Point: -8°   Wind: 7mph
Humidity: 85%   Direction: 130°SE
Pressure: 29.76"   Gusts: NA
Location:  45.03°N, 89.65°W
Report Text: KAUW 262154Z AUTO 13006KT 8SM OVC012 M06/M08 A2976 RMK AO2 SLP104 T10611083
Loading
Personal Weather Stations






























Interactive Weather Map New forecast layout! Learn more

10-Day Weather Forecast

Advertisements
Track Severe Weather on mobile